sensor_id;sensor_type;location;lat;lon;timestamp;P1;durP1;ratioP1;P2;durP2;ratioP2
59300;SDS011;45073;52.740;6.784;2022-12-07T00:01:19;4.78;;;1.30;;
59300;SDS011;45073;52.740;6.784;2022-12-07T00:03:46;5.95;;;1.60;;
59300;SDS011;45073;52.740;6.784;2022-12-07T00:06:13;5.28;;;1.50;;
59300;SDS011;45073;52.740;6.784;2022-12-07T00:08:40;3.65;;;1.13;;
59300;SDS011;45073;52.740;6.784;2022-12-07T00:11:11;8.05;;;1.58;;
59300;SDS011;45073;52.740;6.784;2022-12-07T00:13:39;6.47;;;1.70;;
59300;SDS011;45073;52.740;6.784;2022-12-07T00:16:12;8.00;;;2.30;;
59300;SDS011;45073;52.740;6.784;2022-12-07T00:18:43;10.05;;;3.05;;
59300;SDS011;45073;52.740;6.784;2022-12-07T00:21:13;10.38;;;4.00;;
59300;SDS011;45073;52.740;6.784;2022-12-07T00:23:40;12.95;;;4.88;;
59300;SDS011;45073;52.740;6.784;2022-12-07T00:26:08;11.02;;;5.85;;
59300;SDS011;45073;52.740;6.784;2022-12-07T00:28:36;10.50;;;5.20;;
59300;SDS011;45073;52.740;6.784;2022-12-07T00:31:03;10.23;;;4.20;;
59300;SDS011;45073;52.740;6.784;2022-12-07T00:33:32;10.45;;;3.92;;
59300;SDS011;45073;52.740;6.784;2022-12-07T00:35:59;10.68;;;2.97;;
59300;SDS011;45073;52.740;6.784;2022-12-07T00:38:27;6.53;;;2.50;;
59300;SDS011;45073;52.740;6.784;2022-12-07T00:40:58;8.43;;;2.05;;
59300;SDS011;45073;52.740;6.784;2022-12-07T00:43:26;7.40;;;1.95;;
59300;SDS011;45073;52.740;6.784;2022-12-07T00:45:52;6.45;;;1.42;;
59300;SDS011;45073;52.740;6.784;2022-12-07T00:48:18;5.47;;;1.33;;
59300;SDS011;45073;52.740;6.784;2022-12-07T00:50:44;6.85;;;1.50;;
59300;SDS011;45073;52.740;6.784;2022-12-07T00:53:10;6.53;;;1.40;;
59300;SDS011;45073;52.740;6.784;2022-12-07T00:55:35;7.00;;;1.73;;
59300;SDS011;45073;52.740;6.784;2022-12-07T00:58:01;6.70;;;1.30;;
59300;SDS011;45073;52.740;6.784;2022-12-07T01:00:27;6.50;;;1.50;;
59300;SDS011;45073;52.740;6.784;2022-12-07T01:02:53;7.80;;;1.67;;
59300;SDS011;45073;52.740;6.784;2022-12-07T01:05:19;8.15;;;1.40;;
59300;SDS011;45073;52.740;6.784;2022-12-07T01:07:44;8.98;;;1.98;;
59300;SDS011;45073;52.740;6.784;2022-12-07T01:10:11;6.00;;;1.55;;
59300;SDS011;45073;52.740;6.784;2022-12-07T01:12:38;9.90;;;2.25;;
59300;SDS011;45073;52.740;6.784;2022-12-07T01:15:04;15.70;;;2.65;;
59300;SDS011;45073;52.740;6.784;2022-12-07T01:17:30;8.68;;;1.75;;
59300;SDS011;45073;52.740;6.784;2022-12-07T01:19:56;9.07;;;2.03;;
59300;SDS011;45073;52.740;6.784;2022-12-07T01:22:21;8.48;;;2.55;;
59300;SDS011;45073;52.740;6.784;2022-12-07T01:24:47;10.15;;;2.65;;
59300;SDS011;45073;52.740;6.784;2022-12-07T01:27:13;9.90;;;2.15;;
59300;SDS011;45073;52.740;6.784;2022-12-07T01:29:39;9.15;;;2.10;;
59300;SDS011;45073;52.740;6.784;2022-12-07T01:32:05;7.03;;;1.63;;
59300;SDS011;45073;52.740;6.784;2022-12-07T01:34:31;9.13;;;1.63;;
59300;SDS011;45073;52.740;6.784;2022-12-07T01:36:56;9.48;;;1.52;;
59300;SDS011;45073;52.740;6.784;2022-12-07T01:39:22;8.57;;;1.65;;
59300;SDS011;45073;52.740;6.784;2022-12-07T01:41:48;7.35;;;2.10;;
59300;SDS011;45073;52.740;6.784;2022-12-07T01:51:55;10.38;;;1.55;;
59300;SDS011;45073;52.740;6.784;2022-12-07T01:54:27;10.18;;;1.83;;
59300;SDS011;45073;52.740;6.784;2022-12-07T01:56:53;11.18;;;2.38;;
59300;SDS011;45073;52.740;6.784;2022-12-07T01:59:22;7.55;;;1.10;;
59300;SDS011;45073;52.740;6.784;2022-12-07T02:01:51;6.22;;;1.60;;
59300;SDS011;45073;52.740;6.784;2022-12-07T02:04:18;9.60;;;1.90;;
59300;SDS011;45073;52.740;6.784;2022-12-07T02:06:44;7.90;;;1.52;;
59300;SDS011;45073;52.740;6.784;2022-12-07T02:09:10;8.05;;;1.70;;
59300;SDS011;45073;52.740;6.784;2022-12-07T02:11:37;8.15;;;1.67;;
59300;SDS011;45073;52.740;6.784;2022-12-07T02:14:02;9.35;;;1.88;;
59300;SDS011;45073;52.740;6.784;2022-12-07T02:21:54;3.65;;;0.98;;
59300;SDS011;45073;52.740;6.784;2022-12-07T02:30:13;7.97;;;1.27;;
59300;SDS011;45073;52.740;6.784;2022-12-07T02:32:48;3.25;;;0.82;;
59300;SDS011;45073;52.740;6.784;2022-12-07T02:35:30;8.18;;;1.52;;
59300;SDS011;45073;52.740;6.784;2022-12-07T02:40:47;7.93;;;1.20;;
59300;SDS011;45073;52.740;6.784;2022-12-07T02:43:19;6.85;;;1.58;;
59300;SDS011;45073;52.740;6.784;2022-12-07T02:45:49;6.35;;;1.20;;
59300;SDS011;45073;52.740;6.784;2022-12-07T02:48:18;7.07;;;1.15;;
59300;SDS011;45073;52.740;6.784;2022-12-07T02:50:52;7.13;;;2.30;;
59300;SDS011;45073;52.740;6.784;2022-12-07T03:02:18;7.50;;;1.90;;
59300;SDS011;45073;52.740;6.784;2022-12-07T03:04:54;6.97;;;1.65;;
59300;SDS011;45073;52.740;6.784;2022-12-07T03:10:34;9.43;;;1.63;;
59300;SDS011;45073;52.740;6.784;2022-12-07T03:13:23;7.72;;;1.45;;
59300;SDS011;45073;52.740;6.784;2022-12-07T03:16:03;8.75;;;2.22;;
59300;SDS011;45073;52.740;6.784;2022-12-07T03:18:31;4.80;;;1.23;;
59300;SDS011;45073;52.740;6.784;2022-12-07T03:21:02;8.45;;;1.63;;
59300;SDS011;45073;52.740;6.784;2022-12-07T03:23:34;5.43;;;1.35;;
59300;SDS011;45073;52.740;6.784;2022-12-07T03:26:02;4.20;;;1.02;;
59300;SDS011;45073;52.740;6.784;2022-12-07T03:28:33;7.00;;;1.55;;
59300;SDS011;45073;52.740;6.784;2022-12-07T03:33:46;5.78;;;1.27;;
59300;SDS011;45073;52.740;6.784;2022-12-07T03:36:41;7.88;;;1.75;;
59300;SDS011;45073;52.740;6.784;2022-12-07T03:39:22;8.15;;;1.30;;
59300;SDS011;45073;52.740;6.784;2022-12-07T03:41:59;5.68;;;1.10;;
59300;SDS011;45073;52.740;6.784;2022-12-07T03:44:28;5.93;;;1.33;;
59300;SDS011;45073;52.740;6.784;2022-12-07T03:47:14;9.60;;;1.20;;
59300;SDS011;45073;52.740;6.784;2022-12-07T03:49:43;5.45;;;1.17;;
59300;SDS011;45073;52.740;6.784;2022-12-07T03:55:04;5.45;;;1.33;;
59300;SDS011;45073;52.740;6.784;2022-12-07T03:57:41;2.63;;;0.82;;
59300;SDS011;45073;52.740;6.784;2022-12-07T04:00:10;5.70;;;1.00;;
59300;SDS011;45073;52.740;6.784;2022-12-07T04:02:36;8.00;;;1.23;;
59300;SDS011;45073;52.740;6.784;2022-12-07T04:05:03;4.97;;;1.17;;
59300;SDS011;45073;52.740;6.784;2022-12-07T04:07:29;6.03;;;1.10;;
59300;SDS011;45073;52.740;6.784;2022-12-07T04:09:54;7.32;;;0.98;;
59300;SDS011;45073;52.740;6.784;2022-12-07T04:12:21;5.47;;;1.13;;
59300;SDS011;45073;52.740;6.784;2022-12-07T04:14:47;6.32;;;1.20;;
59300;SDS011;45073;52.740;6.784;2022-12-07T04:17:12;8.20;;;1.55;;
59300;SDS011;45073;52.740;6.784;2022-12-07T04:19:38;4.72;;;1.10;;
59300;SDS011;45073;52.740;6.784;2022-12-07T04:22:04;5.75;;;0.98;;
59300;SDS011;45073;52.740;6.784;2022-12-07T04:24:30;6.15;;;1.42;;
59300;SDS011;45073;52.740;6.784;2022-12-07T04:26:55;8.88;;;1.40;;
59300;SDS011;45073;52.740;6.784;2022-12-07T04:29:21;7.20;;;1.25;;
59300;SDS011;45073;52.740;6.784;2022-12-07T04:31:47;6.55;;;1.10;;
59300;SDS011;45073;52.740;6.784;2022-12-07T04:34:14;6.47;;;0.98;;
59300;SDS011;45073;52.740;6.784;2022-12-07T04:36:41;4.45;;;0.90;;
59300;SDS011;45073;52.740;6.784;2022-12-07T04:39:08;6.35;;;0.98;;
59300;SDS011;45073;52.740;6.784;2022-12-07T04:41:36;7.10;;;0.98;;
59300;SDS011;45073;52.740;6.784;2022-12-07T04:44:02;5.65;;;1.17;;
59300;SDS011;45073;52.740;6.784;2022-12-07T04:46:30;6.50;;;1.17;;
59300;SDS011;45073;52.740;6.784;2022-12-07T04:48:56;6.53;;;1.55;;
59300;SDS011;45073;52.740;6.784;2022-12-07T04:51:24;8.43;;;1.25;;
59300;SDS011;45073;52.740;6.784;2022-12-07T04:53:51;6.55;;;1.23;;
59300;SDS011;45073;52.740;6.784;2022-12-07T04:56:17;6.10;;;1.10;;
59300;SDS011;45073;52.740;6.784;2022-12-07T04:58:44;7.10;;;1.20;;
59300;SDS011;45073;52.740;6.784;2022-12-07T05:01:11;3.33;;;0.80;;
59300;SDS011;45073;52.740;6.784;2022-12-07T05:03:37;6.55;;;1.08;;
59300;SDS011;45073;52.740;6.784;2022-12-07T05:06:05;8.93;;;1.60;;
59300;SDS011;45073;52.740;6.784;2022-12-07T05:08:32;11.52;;;1.42;;
59300;SDS011;45073;52.740;6.784;2022-12-07T05:10:59;5.85;;;2.55;;
59300;SDS011;45073;52.740;6.784;2022-12-07T05:13:25;5.53;;;0.88;;
59300;SDS011;45073;52.740;6.784;2022-12-07T05:15:51;5.65;;;1.10;;
59300;SDS011;45073;52.740;6.784;2022-12-07T05:18:16;10.60;;;1.55;;
59300;SDS011;45073;52.740;6.784;2022-12-07T05:20:42;11.68;;;1.20;;
59300;SDS011;45073;52.740;6.784;2022-12-07T05:23:09;5.05;;;0.80;;
59300;SDS011;45073;52.740;6.784;2022-12-07T05:25:34;8.75;;;0.88;;
59300;SDS011;45073;52.740;6.784;2022-12-07T05:28:01;3.22;;;0.75;;
59300;SDS011;45073;52.740;6.784;2022-12-07T05:30:26;4.47;;;0.70;;
59300;SDS011;45073;52.740;6.784;2022-12-07T05:32:53;5.93;;;1.02;;
59300;SDS011;45073;52.740;6.784;2022-12-07T05:35:18;3.63;;;1.02;;
59300;SDS011;45073;52.740;6.784;2022-12-07T05:37:44;7.97;;;1.52;;
59300;SDS011;45073;52.740;6.784;2022-12-07T05:40:10;7.93;;;2.35;;
59300;SDS011;45073;52.740;6.784;2022-12-07T05:42:37;9.45;;;1.38;;
59300;SDS011;45073;52.740;6.784;2022-12-07T05:45:03;7.32;;;1.00;;
59300;SDS011;45073;52.740;6.784;2022-12-07T05:47:29;7.47;;;1.17;;
59300;SDS011;45073;52.740;6.784;2022-12-07T05:49:55;6.07;;;0.90;;
59300;SDS011;45073;52.740;6.784;2022-12-07T05:52:20;11.13;;;1.83;;
59300;SDS011;45073;52.740;6.784;2022-12-07T05:54:47;6.47;;;1.38;;
59300;SDS011;45073;52.740;6.784;2022-12-07T05:57:12;7.70;;;1.75;;
59300;SDS011;45073;52.740;6.784;2022-12-07T05:59:38;3.13;;;0.88;;
59300;SDS011;45073;52.740;6.784;2022-12-07T06:02:05;2.78;;;0.73;;
59300;SDS011;45073;52.740;6.784;2022-12-07T06:04:34;9.45;;;1.30;;
59300;SDS011;45073;52.740;6.784;2022-12-07T06:07:02;4.13;;;1.75;;
59300;SDS011;45073;52.740;6.784;2022-12-07T06:09:28;6.07;;;0.90;;
59300;SDS011;45073;52.740;6.784;2022-12-07T06:11:54;6.45;;;1.40;;
59300;SDS011;45073;52.740;6.784;2022-12-07T06:14:38;8.95;;;2.17;;
59300;SDS011;45073;52.740;6.784;2022-12-07T06:17:04;8.73;;;1.63;;
59300;SDS011;45073;52.740;6.784;2022-12-07T06:19:30;4.00;;;0.88;;
59300;SDS011;45073;52.740;6.784;2022-12-07T06:21:56;6.13;;;0.80;;
59300;SDS011;45073;52.740;6.784;2022-12-07T06:24:22;5.18;;;1.13;;
59300;SDS011;45073;52.740;6.784;2022-12-07T06:26:47;5.05;;;1.00;;
59300;SDS011;45073;52.740;6.784;2022-12-07T06:29:13;4.47;;;0.95;;
59300;SDS011;45073;52.740;6.784;2022-12-07T06:31:40;3.95;;;0.75;;
59300;SDS011;45073;52.740;6.784;2022-12-07T06:34:10;7.40;;;1.15;;
59300;SDS011;45073;52.740;6.784;2022-12-07T06:36:37;4.80;;;0.98;;
59300;SDS011;45073;52.740;6.784;2022-12-07T06:39:03;4.45;;;0.80;;
59300;SDS011;45073;52.740;6.784;2022-12-07T06:41:30;9.75;;;1.60;;
59300;SDS011;45073;52.740;6.784;2022-12-07T06:43:56;3.83;;;0.88;;
59300;SDS011;45073;52.740;6.784;2022-12-07T06:46:22;5.20;;;1.30;;
59300;SDS011;45073;52.740;6.784;2022-12-07T06:48:48;4.75;;;0.85;;
59300;SDS011;45073;52.740;6.784;2022-12-07T06:51:13;6.95;;;1.25;;
59300;SDS011;45073;52.740;6.784;2022-12-07T06:53:39;9.05;;;1.73;;
59300;SDS011;45073;52.740;6.784;2022-12-07T06:56:05;7.80;;;1.38;;
59300;SDS011;45073;52.740;6.784;2022-12-07T06:58:30;6.05;;;1.10;;
59300;SDS011;45073;52.740;6.784;2022-12-07T07:00:56;9.10;;;1.00;;
59300;SDS011;45073;52.740;6.784;2022-12-07T07:03:22;6.80;;;0.88;;
59300;SDS011;45073;52.740;6.784;2022-12-07T07:05:48;8.32;;;1.35;;
59300;SDS011;45073;52.740;6.784;2022-12-07T07:08:13;5.03;;;1.15;;
59300;SDS011;45073;52.740;6.784;2022-12-07T07:10:40;4.82;;;1.00;;
59300;SDS011;45073;52.740;6.784;2022-12-07T07:13:06;6.07;;;1.23;;
59300;SDS011;45073;52.740;6.784;2022-12-07T07:15:32;5.68;;;0.90;;
59300;SDS011;45073;52.740;6.784;2022-12-07T07:17:58;5.90;;;0.80;;
59300;SDS011;45073;52.740;6.784;2022-12-07T07:20:24;6.10;;;1.27;;
59300;SDS011;45073;52.740;6.784;2022-12-07T07:22:50;5.88;;;1.35;;
59300;SDS011;45073;52.740;6.784;2022-12-07T07:25:16;5.13;;;0.90;;
59300;SDS011;45073;52.740;6.784;2022-12-07T07:27:41;4.85;;;1.20;;
59300;SDS011;45073;52.740;6.784;2022-12-07T07:30:07;8.57;;;1.42;;
59300;SDS011;45073;52.740;6.784;2022-12-07T07:32:33;4.13;;;1.10;;
59300;SDS011;45073;52.740;6.784;2022-12-07T07:34:59;5.47;;;0.90;;
59300;SDS011;45073;52.740;6.784;2022-12-07T07:37:25;3.60;;;0.85;;
59300;SDS011;45073;52.740;6.784;2022-12-07T07:39:51;7.03;;;0.82;;
59300;SDS011;45073;52.740;6.784;2022-12-07T07:42:17;4.75;;;0.85;;
59300;SDS011;45073;52.740;6.784;2022-12-07T07:44:42;5.22;;;1.27;;
59300;SDS011;45073;52.740;6.784;2022-12-07T07:47:08;6.90;;;1.23;;
59300;SDS011;45073;52.740;6.784;2022-12-07T07:49:33;4.68;;;1.10;;
59300;SDS011;45073;52.740;6.784;2022-12-07T07:51:59;11.07;;;1.50;;
59300;SDS011;45073;52.740;6.784;2022-12-07T07:54:25;5.47;;;0.93;;
59300;SDS011;45073;52.740;6.784;2022-12-07T07:56:50;5.53;;;1.20;;
59300;SDS011;45073;52.740;6.784;2022-12-07T07:59:17;7.57;;;1.42;;
59300;SDS011;45073;52.740;6.784;2022-12-07T08:01:43;5.15;;;1.20;;
59300;SDS011;45073;52.740;6.784;2022-12-07T08:04:08;9.43;;;0.90;;
59300;SDS011;45073;52.740;6.784;2022-12-07T08:06:34;7.30;;;1.17;;
59300;SDS011;45073;52.740;6.784;2022-12-07T08:09:00;5.32;;;1.02;;
59300;SDS011;45073;52.740;6.784;2022-12-07T08:11:25;3.85;;;0.82;;
59300;SDS011;45073;52.740;6.784;2022-12-07T08:13:51;5.05;;;1.05;;
59300;SDS011;45073;52.740;6.784;2022-12-07T08:16:16;3.25;;;0.75;;
59300;SDS011;45073;52.740;6.784;2022-12-07T08:18:42;4.72;;;0.73;;
59300;SDS011;45073;52.740;6.784;2022-12-07T08:21:09;2.50;;;0.68;;
59300;SDS011;45073;52.740;6.784;2022-12-07T08:23:37;11.38;;;2.05;;
59300;SDS011;45073;52.740;6.784;2022-12-07T08:26:03;8.30;;;0.93;;
59300;SDS011;45073;52.740;6.784;2022-12-07T08:28:30;8.93;;;1.23;;
59300;SDS011;45073;52.740;6.784;2022-12-07T08:30:59;5.10;;;1.05;;
59300;SDS011;45073;52.740;6.784;2022-12-07T08:35:55;6.78;;;0.88;;
59300;SDS011;45073;52.740;6.784;2022-12-07T08:38:29;9.38;;;1.02;;
59300;SDS011;45073;52.740;6.784;2022-12-07T08:40:58;5.05;;;1.20;;
59300;SDS011;45073;52.740;6.784;2022-12-07T08:43:24;6.00;;;0.95;;
59300;SDS011;45073;52.740;6.784;2022-12-07T08:45:52;6.13;;;1.00;;
59300;SDS011;45073;52.740;6.784;2022-12-07T08:48:28;3.38;;;0.70;;
59300;SDS011;45073;52.740;6.784;2022-12-07T08:50:55;6.20;;;1.35;;
59300;SDS011;45073;52.740;6.784;2022-12-07T08:53:21;5.07;;;1.77;;
59300;SDS011;45073;52.740;6.784;2022-12-07T08:55:47;5.57;;;1.55;;
59300;SDS011;45073;52.740;6.784;2022-12-07T08:58:13;6.65;;;1.67;;
59300;SDS011;45073;52.740;6.784;2022-12-07T09:00:39;5.00;;;0.88;;
59300;SDS011;45073;52.740;6.784;2022-12-07T09:03:04;5.50;;;1.15;;
59300;SDS011;45073;52.740;6.784;2022-12-07T09:05:31;8.85;;;1.55;;
59300;SDS011;45073;52.740;6.784;2022-12-07T09:07:59;4.90;;;0.88;;
59300;SDS011;45073;52.740;6.784;2022-12-07T09:10:26;18.05;;;1.38;;
59300;SDS011;45073;52.740;6.784;2022-12-07T09:12:52;6.25;;;0.98;;
59300;SDS011;45073;52.740;6.784;2022-12-07T09:15:18;7.63;;;1.20;;
59300;SDS011;45073;52.740;6.784;2022-12-07T09:17:44;8.02;;;1.00;;
59300;SDS011;45073;52.740;6.784;2022-12-07T09:20:10;9.30;;;1.65;;
59300;SDS011;45073;52.740;6.784;2022-12-07T09:22:36;3.25;;;1.08;;
59300;SDS011;45073;52.740;6.784;2022-12-07T09:25:02;7.18;;;1.48;;
59300;SDS011;45073;52.740;6.784;2022-12-07T09:27:29;3.78;;;1.02;;
59300;SDS011;45073;52.740;6.784;2022-12-07T09:29:55;3.03;;;0.82;;
59300;SDS011;45073;52.740;6.784;2022-12-07T09:32:20;5.55;;;0.93;;
59300;SDS011;45073;52.740;6.784;2022-12-07T09:34:46;11.35;;;1.65;;
59300;SDS011;45073;52.740;6.784;2022-12-07T09:37:12;5.53;;;1.23;;
59300;SDS011;45073;52.740;6.784;2022-12-07T09:39:38;5.63;;;0.98;;
59300;SDS011;45073;52.740;6.784;2022-12-07T09:42:04;9.05;;;1.20;;
59300;SDS011;45073;52.740;6.784;2022-12-07T09:44:32;12.30;;;2.13;;
59300;SDS011;45073;52.740;6.784;2022-12-07T09:46:59;7.45;;;1.70;;
59300;SDS011;45073;52.740;6.784;2022-12-07T09:49:27;7.63;;;1.48;;
59300;SDS011;45073;52.740;6.784;2022-12-07T09:54:34;6.65;;;1.20;;
59300;SDS011;45073;52.740;6.784;2022-12-07T09:57:11;5.18;;;1.08;;
59300;SDS011;45073;52.740;6.784;2022-12-07T09:59:37;3.38;;;1.02;;
59300;SDS011;45073;52.740;6.784;2022-12-07T10:02:25;3.03;;;0.60;;
59300;SDS011;45073;52.740;6.784;2022-12-07T10:05:01;5.72;;;1.33;;
59300;SDS011;45073;52.740;6.784;2022-12-07T10:07:29;5.22;;;1.20;;
59300;SDS011;45073;52.740;6.784;2022-12-07T10:09:55;9.18;;;1.10;;
59300;SDS011;45073;52.740;6.784;2022-12-07T10:12:20;4.38;;;1.13;;
59300;SDS011;45073;52.740;6.784;2022-12-07T10:14:53;3.53;;;0.85;;
59300;SDS011;45073;52.740;6.784;2022-12-07T10:18:14;8.57;;;1.38;;
59300;SDS011;45073;52.740;6.784;2022-12-07T10:20:21;7.32;;;1.30;;
59300;SDS011;45073;52.740;6.784;2022-12-07T10:23:03;8.07;;;1.10;;
59300;SDS011;45073;52.740;6.784;2022-12-07T10:25:34;9.45;;;1.40;;
59300;SDS011;45073;52.740;6.784;2022-12-07T10:28:03;6.13;;;1.20;;
59300;SDS011;45073;52.740;6.784;2022-12-07T10:30:47;6.93;;;1.13;;
59300;SDS011;45073;52.740;6.784;2022-12-07T10:35:56;6.17;;;1.67;;
59300;SDS011;45073;52.740;6.784;2022-12-07T10:38:21;11.88;;;1.67;;
59300;SDS011;45073;52.740;6.784;2022-12-07T10:40:48;9.48;;;1.60;;
59300;SDS011;45073;52.740;6.784;2022-12-07T10:43:28;7.03;;;1.45;;
59300;SDS011;45073;52.740;6.784;2022-12-07T11:05:37;7.32;;;1.77;;
59300;SDS011;45073;52.740;6.784;2022-12-07T11:10:55;8.98;;;1.35;;
59300;SDS011;45073;52.740;6.784;2022-12-07T11:13:37;7.68;;;1.50;;
59300;SDS011;45073;52.740;6.784;2022-12-07T11:19:20;7.50;;;1.15;;
59300;SDS011;45073;52.740;6.784;2022-12-07T11:21:58;8.07;;;1.58;;
59300;SDS011;45073;52.740;6.784;2022-12-07T11:32:34;9.90;;;1.20;;
59300;SDS011;45073;52.740;6.784;2022-12-07T11:38:01;4.85;;;1.23;;
59300;SDS011;45073;52.740;6.784;2022-12-07T11:40:35;6.85;;;1.63;;
59300;SDS011;45073;52.740;6.784;2022-12-07T11:43:09;5.75;;;1.42;;
59300;SDS011;45073;52.740;6.784;2022-12-07T11:45:43;15.93;;;1.75;;
59300;SDS011;45073;52.740;6.784;2022-12-07T11:48:17;4.87;;;1.13;;
59300;SDS011;45073;52.740;6.784;2022-12-07T11:50:51;4.70;;;1.02;;
59300;SDS011;45073;52.740;6.784;2022-12-07T11:53:21;10.55;;;1.40;;
59300;SDS011;45073;52.740;6.784;2022-12-07T11:55:56;10.17;;;1.13;;
59300;SDS011;45073;52.740;6.784;2022-12-07T12:06:40;4.93;;;1.15;;
59300;SDS011;45073;52.740;6.784;2022-12-07T12:11:58;7.53;;;1.30;;
59300;SDS011;45073;52.740;6.784;2022-12-07T12:20:35;7.50;;;1.20;;
59300;SDS011;45073;52.740;6.784;2022-12-07T12:23:13;9.45;;;1.55;;
59300;SDS011;45073;52.740;6.784;2022-12-07T12:25:41;8.13;;;2.28;;
59300;SDS011;45073;52.740;6.784;2022-12-07T12:28:22;8.48;;;2.20;;
59300;SDS011;45073;52.740;6.784;2022-12-07T12:33:43;10.32;;;1.63;;
59300;SDS011;45073;52.740;6.784;2022-12-07T12:54:58;7.50;;;1.30;;
59300;SDS011;45073;52.740;6.784;2022-12-07T12:57:28;8.68;;;1.27;;
59300;SDS011;45073;52.740;6.784;2022-12-07T12:59:59;10.43;;;1.50;;
59300;SDS011;45073;52.740;6.784;2022-12-07T13:10:25;8.00;;;1.25;;
59300;SDS011;45073;52.740;6.784;2022-12-07T13:12:55;12.05;;;1.58;;
59300;SDS011;45073;52.740;6.784;2022-12-07T13:20:59;8.63;;;1.42;;
59300;SDS011;45073;52.740;6.784;2022-12-07T13:29:15;4.47;;;1.00;;
59300;SDS011;45073;52.740;6.784;2022-12-07T13:31:43;6.85;;;1.33;;
59300;SDS011;45073;52.740;6.784;2022-12-07T13:37:18;6.85;;;0.90;;
59300;SDS011;45073;52.740;6.784;2022-12-07T13:39:55;5.43;;;1.40;;
59300;SDS011;45073;52.740;6.784;2022-12-07T13:42:29;7.10;;;1.20;;
59300;SDS011;45073;52.740;6.784;2022-12-07T13:45:00;5.15;;;0.80;;
59300;SDS011;45073;52.740;6.784;2022-12-07T13:47:47;5.95;;;0.77;;
59300;SDS011;45073;52.740;6.784;2022-12-07T13:52:50;6.60;;;1.25;;
59300;SDS011;45073;52.740;6.784;2022-12-07T13:55:21;3.55;;;0.73;;
59300;SDS011;45073;52.740;6.784;2022-12-07T13:57:47;4.53;;;0.88;;
59300;SDS011;45073;52.740;6.784;2022-12-07T14:00:18;4.00;;;0.55;;
59300;SDS011;45073;52.740;6.784;2022-12-07T14:02:56;4.03;;;0.68;;
59300;SDS011;45073;52.740;6.784;2022-12-07T14:05:30;3.45;;;0.70;;
59300;SDS011;45073;52.740;6.784;2022-12-07T14:08:01;3.97;;;1.10;;
59300;SDS011;45073;52.740;6.784;2022-12-07T14:13:02;2.88;;;0.40;;
59300;SDS011;45073;52.740;6.784;2022-12-07T14:15:49;4.95;;;0.60;;
59300;SDS011;45073;52.740;6.784;2022-12-07T14:18:29;3.30;;;0.80;;
59300;SDS011;45073;52.740;6.784;2022-12-07T14:21:02;6.68;;;0.90;;
59300;SDS011;45073;52.740;6.784;2022-12-07T14:23:34;4.88;;;0.73;;
59300;SDS011;45073;52.740;6.784;2022-12-07T14:28:39;4.93;;;0.75;;
59300;SDS011;45073;52.740;6.784;2022-12-07T14:31:10;2.00;;;0.57;;
59300;SDS011;45073;52.740;6.784;2022-12-07T14:33:39;1.55;;;0.43;;
59300;SDS011;45073;52.740;6.784;2022-12-07T14:36:05;3.65;;;0.85;;
59300;SDS011;45073;52.740;6.784;2022-12-07T14:38:34;4.68;;;0.70;;
59300;SDS011;45073;52.740;6.784;2022-12-07T14:40:59;2.78;;;0.55;;
59300;SDS011;45073;52.740;6.784;2022-12-07T14:43:44;5.82;;;0.70;;
59300;SDS011;45073;52.740;6.784;2022-12-07T14:46:09;3.08;;;0.65;;
59300;SDS011;45073;52.740;6.784;2022-12-07T14:48:35;3.47;;;0.70;;
59300;SDS011;45073;52.740;6.784;2022-12-07T14:51:01;3.13;;;0.63;;
59300;SDS011;45073;52.740;6.784;2022-12-07T14:53:28;4.35;;;0.80;;
59300;SDS011;45073;52.740;6.784;2022-12-07T14:55:57;6.15;;;1.05;;
59300;SDS011;45073;52.740;6.784;2022-12-07T14:58:22;6.05;;;0.98;;
59300;SDS011;45073;52.740;6.784;2022-12-07T15:00:48;3.38;;;0.50;;
59300;SDS011;45073;52.740;6.784;2022-12-07T15:03:13;7.20;;;1.23;;
59300;SDS011;45073;52.740;6.784;2022-12-07T15:05:39;8.93;;;1.23;;
59300;SDS011;45073;52.740;6.784;2022-12-07T15:08:06;6.75;;;1.00;;
59300;SDS011;45073;52.740;6.784;2022-12-07T15:10:33;9.70;;;1.55;;
59300;SDS011;45073;52.740;6.784;2022-12-07T15:13:03;4.40;;;1.25;;
59300;SDS011;45073;52.740;6.784;2022-12-07T15:15:47;6.68;;;1.27;;
59300;SDS011;45073;52.740;6.784;2022-12-07T15:18:14;8.55;;;1.83;;
59300;SDS011;45073;52.740;6.784;2022-12-07T15:20:40;7.60;;;1.10;;
59300;SDS011;45073;52.740;6.784;2022-12-07T15:23:06;5.97;;;1.15;;
59300;SDS011;45073;52.740;6.784;2022-12-07T15:25:32;5.55;;;1.17;;
59300;SDS011;45073;52.740;6.784;2022-12-07T15:27:57;5.07;;;0.88;;
59300;SDS011;45073;52.740;6.784;2022-12-07T15:30:23;5.57;;;1.10;;
59300;SDS011;45073;52.740;6.784;2022-12-07T15:32:49;5.43;;;1.92;;
59300;SDS011;45073;52.740;6.784;2022-12-07T15:35:15;4.70;;;1.13;;
59300;SDS011;45073;52.740;6.784;2022-12-07T15:37:41;8.68;;;1.45;;
59300;SDS011;45073;52.740;6.784;2022-12-07T15:40:07;4.18;;;0.90;;
59300;SDS011;45073;52.740;6.784;2022-12-07T15:42:33;7.50;;;1.92;;
59300;SDS011;45073;52.740;6.784;2022-12-07T15:45:00;4.63;;;1.00;;
59300;SDS011;45073;52.740;6.784;2022-12-07T15:47:28;7.28;;;1.42;;
59300;SDS011;45073;52.740;6.784;2022-12-07T15:50:02;7.43;;;1.90;;
59300;SDS011;45073;52.740;6.784;2022-12-07T15:52:29;9.82;;;2.17;;
59300;SDS011;45073;52.740;6.784;2022-12-07T15:54:55;5.10;;;1.23;;
59300;SDS011;45073;52.740;6.784;2022-12-07T15:57:21;6.15;;;1.30;;
59300;SDS011;45073;52.740;6.784;2022-12-07T15:59:46;4.45;;;1.15;;
59300;SDS011;45073;52.740;6.784;2022-12-07T16:02:12;4.15;;;1.38;;
59300;SDS011;45073;52.740;6.784;2022-12-07T16:04:38;3.25;;;0.90;;
59300;SDS011;45073;52.740;6.784;2022-12-07T16:07:03;5.35;;;1.25;;
59300;SDS011;45073;52.740;6.784;2022-12-07T16:09:29;6.22;;;1.33;;
59300;SDS011;45073;52.740;6.784;2022-12-07T16:11:55;4.07;;;1.13;;
59300;SDS011;45073;52.740;6.784;2022-12-07T16:14:21;5.72;;;1.02;;
59300;SDS011;45073;52.740;6.784;2022-12-07T16:16:46;4.50;;;0.95;;
59300;SDS011;45073;52.740;6.784;2022-12-07T16:19:12;3.47;;;1.00;;
59300;SDS011;45073;52.740;6.784;2022-12-07T16:21:38;7.55;;;1.25;;
59300;SDS011;45073;52.740;6.784;2022-12-07T16:24:04;4.95;;;1.05;;
59300;SDS011;45073;52.740;6.784;2022-12-07T16:26:30;6.25;;;0.80;;
59300;SDS011;45073;52.740;6.784;2022-12-07T16:28:56;3.33;;;0.80;;
59300;SDS011;45073;52.740;6.784;2022-12-07T16:31:24;3.20;;;0.93;;
59300;SDS011;45073;52.740;6.784;2022-12-07T16:33:52;3.30;;;0.60;;
59300;SDS011;45073;52.740;6.784;2022-12-07T16:36:19;6.70;;;1.00;;
59300;SDS011;45073;52.740;6.784;2022-12-07T16:38:47;3.55;;;0.77;;
59300;SDS011;45073;52.740;6.784;2022-12-07T16:41:13;5.05;;;1.48;;
59300;SDS011;45073;52.740;6.784;2022-12-07T16:43:38;2.97;;;0.80;;
59300;SDS011;45073;52.740;6.784;2022-12-07T16:46:04;2.22;;;0.82;;
59300;SDS011;45073;52.740;6.784;2022-12-07T16:48:30;4.43;;;0.88;;
59300;SDS011;45073;52.740;6.784;2022-12-07T16:50:56;6.72;;;1.45;;
59300;SDS011;45073;52.740;6.784;2022-12-07T16:53:23;3.53;;;0.70;;
59300;SDS011;45073;52.740;6.784;2022-12-07T16:55:48;3.58;;;0.65;;
59300;SDS011;45073;52.740;6.784;2022-12-07T16:58:15;2.83;;;0.70;;
59300;SDS011;45073;52.740;6.784;2022-12-07T17:00:42;4.15;;;0.75;;
59300;SDS011;45073;52.740;6.784;2022-12-07T17:03:09;3.58;;;0.88;;
59300;SDS011;45073;52.740;6.784;2022-12-07T17:05:39;6.10;;;1.15;;
59300;SDS011;45073;52.740;6.784;2022-12-07T17:08:06;3.65;;;1.00;;
59300;SDS011;45073;52.740;6.784;2022-12-07T17:10:33;2.92;;;0.90;;
59300;SDS011;45073;52.740;6.784;2022-12-07T17:13:00;2.53;;;1.10;;
59300;SDS011;45073;52.740;6.784;2022-12-07T17:15:26;4.85;;;1.13;;
59300;SDS011;45073;52.740;6.784;2022-12-07T17:17:54;9.95;;;2.35;;
59300;SDS011;45073;52.740;6.784;2022-12-07T17:20:24;3.80;;;0.98;;
59300;SDS011;45073;52.740;6.784;2022-12-07T17:22:51;5.93;;;1.20;;
59300;SDS011;45073;52.740;6.784;2022-12-07T17:25:17;4.38;;;1.25;;